sensor_id;sensor_type;location;lat;lon;timestamp;P1;durP1;ratioP1;P2;durP2;ratioP2
13985;SDS011;7067;51.832;8.296;2024-03-02T00:00:03;8.32;;;7.63;;
13985;SDS011;7067;51.832;8.296;2024-03-02T00:02:44;8.18;;;7.55;;
13985;SDS011;7067;51.832;8.296;2024-03-02T00:05:11;10.70;;;8.65;;
13985;SDS011;7067;51.832;8.296;2024-03-02T00:07:37;9.25;;;8.45;;
13985;SDS011;7067;51.832;8.296;2024-03-02T00:10:07;8.73;;;8.10;;
13985;SDS011;7067;51.832;8.296;2024-03-02T00:12:35;7.88;;;7.18;;
13985;SDS011;7067;51.832;8.296;2024-03-02T00:15:02;9.85;;;8.93;;
13985;SDS011;7067;51.832;8.296;2024-03-02T00:17:30;8.60;;;7.80;;
13985;SDS011;7067;51.832;8.296;2024-03-02T00:19:55;9.38;;;8.45;;
13985;SDS011;7067;51.832;8.296;2024-03-02T00:22:21;9.50;;;8.70;;
13985;SDS011;7067;51.832;8.296;2024-03-02T00:24:47;8.95;;;7.88;;
13985;SDS011;7067;51.832;8.296;2024-03-02T00:27:12;9.20;;;8.30;;
13985;SDS011;7067;51.832;8.296;2024-03-02T00:29:40;8.35;;;7.65;;
13985;SDS011;7067;51.832;8.296;2024-03-02T00:32:09;8.10;;;7.45;;
13985;SDS011;7067;51.832;8.296;2024-03-02T00:34:38;9.18;;;8.40;;
13985;SDS011;7067;51.832;8.296;2024-03-02T00:37:03;8.85;;;8.10;;
13985;SDS011;7067;51.832;8.296;2024-03-02T00:39:28;9.15;;;8.27;;
13985;SDS011;7067;51.832;8.296;2024-03-02T00:41:54;8.02;;;7.35;;
13985;SDS011;7067;51.832;8.296;2024-03-02T00:44:19;8.18;;;7.45;;
13985;SDS011;7067;51.832;8.296;2024-03-02T00:46:50;8.18;;;7.47;;
13985;SDS011;7067;51.832;8.296;2024-03-02T00:49:22;9.07;;;8.30;;
13985;SDS011;7067;51.832;8.296;2024-03-02T00:51:49;9.05;;;8.25;;
13985;SDS011;7067;51.832;8.296;2024-03-02T00:54:15;9.75;;;8.68;;
13985;SDS011;7067;51.832;8.296;2024-03-02T00:56:44;8.25;;;7.65;;
13985;SDS011;7067;51.832;8.296;2024-03-02T00:59:10;8.57;;;7.90;;
13985;SDS011;7067;51.832;8.296;2024-03-02T01:01:36;9.80;;;8.90;;
13985;SDS011;7067;51.832;8.296;2024-03-02T01:04:01;8.77;;;8.07;;
13985;SDS011;7067;51.832;8.296;2024-03-02T01:06:26;8.82;;;8.13;;
13985;SDS011;7067;51.832;8.296;2024-03-02T01:08:52;9.77;;;8.88;;
13985;SDS011;7067;51.832;8.296;2024-03-02T01:11:18;10.50;;;9.50;;
13985;SDS011;7067;51.832;8.296;2024-03-02T01:13:44;9.75;;;8.95;;
13985;SDS011;7067;51.832;8.296;2024-03-02T01:16:10;10.80;;;9.93;;
13985;SDS011;7067;51.832;8.296;2024-03-02T01:18:35;10.07;;;9.20;;
13985;SDS011;7067;51.832;8.296;2024-03-02T01:21:00;10.15;;;9.27;;
13985;SDS011;7067;51.832;8.296;2024-03-02T01:23:26;10.13;;;9.23;;
13985;SDS011;7067;51.832;8.296;2024-03-02T01:25:52;9.63;;;8.80;;
13985;SDS011;7067;51.832;8.296;2024-03-02T01:28:18;9.70;;;9.00;;
13985;SDS011;7067;51.832;8.296;2024-03-02T01:30:44;9.70;;;8.80;;
13985;SDS011;7067;51.832;8.296;2024-03-02T01:33:09;10.30;;;9.48;;
13985;SDS011;7067;51.832;8.296;2024-03-02T01:35:35;12.13;;;10.18;;
13985;SDS011;7067;51.832;8.296;2024-03-02T01:38:00;9.93;;;9.13;;
13985;SDS011;7067;51.832;8.296;2024-03-02T01:40:26;11.23;;;10.13;;
13985;SDS011;7067;51.832;8.296;2024-03-02T01:42:52;10.57;;;9.77;;
13985;SDS011;7067;51.832;8.296;2024-03-02T01:45:18;11.15;;;10.15;;
13985;SDS011;7067;51.832;8.296;2024-03-02T01:47:44;11.30;;;10.30;;
13985;SDS011;7067;51.832;8.296;2024-03-02T01:50:10;10.55;;;9.65;;
13985;SDS011;7067;51.832;8.296;2024-03-02T01:52:36;10.10;;;9.30;;
13985;SDS011;7067;51.832;8.296;2024-03-02T01:55:02;10.73;;;9.73;;
13985;SDS011;7067;51.832;8.296;2024-03-02T01:57:28;10.20;;;9.38;;
13985;SDS011;7067;51.832;8.296;2024-03-02T01:59:54;10.30;;;9.40;;
13985;SDS011;7067;51.832;8.296;2024-03-02T02:02:20;11.60;;;10.55;;
13985;SDS011;7067;51.832;8.296;2024-03-02T02:04:45;11.73;;;10.73;;
13985;SDS011;7067;51.832;8.296;2024-03-02T02:07:10;11.88;;;10.88;;
13985;SDS011;7067;51.832;8.296;2024-03-02T02:09:36;11.77;;;10.70;;
13985;SDS011;7067;51.832;8.296;2024-03-02T02:12:02;12.23;;;11.13;;
13985;SDS011;7067;51.832;8.296;2024-03-02T02:14:29;12.00;;;10.88;;
13985;SDS011;7067;51.832;8.296;2024-03-02T02:16:54;13.73;;;12.50;;
13985;SDS011;7067;51.832;8.296;2024-03-02T02:19:20;14.63;;;13.23;;
13985;SDS011;7067;51.832;8.296;2024-03-02T02:21:45;14.63;;;13.15;;
13985;SDS011;7067;51.832;8.296;2024-03-02T02:24:10;13.52;;;12.32;;
13985;SDS011;7067;51.832;8.296;2024-03-02T02:26:38;11.90;;;10.90;;
13985;SDS011;7067;51.832;8.296;2024-03-02T02:29:03;12.02;;;10.88;;
13985;SDS011;7067;51.832;8.296;2024-03-02T02:31:36;11.57;;;10.38;;
13985;SDS011;7067;51.832;8.296;2024-03-02T02:34:04;11.65;;;10.55;;
13985;SDS011;7067;51.832;8.296;2024-03-02T02:36:30;11.48;;;10.38;;
13985;SDS011;7067;51.832;8.296;2024-03-02T02:38:56;12.48;;;11.18;;
13985;SDS011;7067;51.832;8.296;2024-03-02T02:41:22;11.00;;;10.10;;
13985;SDS011;7067;51.832;8.296;2024-03-02T02:43:47;10.98;;;10.07;;
13985;SDS011;7067;51.832;8.296;2024-03-02T02:46:13;11.07;;;10.07;;
13985;SDS011;7067;51.832;8.296;2024-03-02T02:48:38;10.32;;;9.52;;
13985;SDS011;7067;51.832;8.296;2024-03-02T02:51:03;10.57;;;9.68;;
13985;SDS011;7067;51.832;8.296;2024-03-02T02:53:29;10.82;;;9.90;;
13985;SDS011;7067;51.832;8.296;2024-03-02T02:55:54;10.35;;;9.43;;
13985;SDS011;7067;51.832;8.296;2024-03-02T02:58:19;11.00;;;10.00;;
13985;SDS011;7067;51.832;8.296;2024-03-02T03:00:45;10.13;;;9.32;;
13985;SDS011;7067;51.832;8.296;2024-03-02T03:03:10;11.10;;;10.13;;
13985;SDS011;7067;51.832;8.296;2024-03-02T03:05:36;12.10;;;11.00;;
13985;SDS011;7067;51.832;8.296;2024-03-02T03:08:01;10.35;;;9.45;;
13985;SDS011;7067;51.832;8.296;2024-03-02T03:10:27;11.40;;;10.25;;
13985;SDS011;7067;51.832;8.296;2024-03-02T03:12:53;10.55;;;9.75;;
13985;SDS011;7067;51.832;8.296;2024-03-02T03:15:18;11.20;;;10.20;;
13985;SDS011;7067;51.832;8.296;2024-03-02T03:17:43;11.02;;;10.13;;
13985;SDS011;7067;51.832;8.296;2024-03-02T03:20:10;10.52;;;9.63;;
13985;SDS011;7067;51.832;8.296;2024-03-02T03:22:36;10.23;;;9.43;;
13985;SDS011;7067;51.832;8.296;2024-03-02T03:25:02;10.63;;;9.75;;
13985;SDS011;7067;51.832;8.296;2024-03-02T03:27:28;11.75;;;10.73;;
13985;SDS011;7067;51.832;8.296;2024-03-02T03:29:53;10.38;;;9.40;;
13985;SDS011;7067;51.832;8.296;2024-03-02T03:32:19;11.35;;;10.35;;
13985;SDS011;7067;51.832;8.296;2024-03-02T03:34:44;10.77;;;9.88;;
13985;SDS011;7067;51.832;8.296;2024-03-02T03:37:10;10.45;;;9.45;;
13985;SDS011;7067;51.832;8.296;2024-03-02T03:39:36;11.25;;;10.25;;
13985;SDS011;7067;51.832;8.296;2024-03-02T03:42:01;10.73;;;9.80;;
13985;SDS011;7067;51.832;8.296;2024-03-02T03:44:26;11.80;;;10.68;;
13985;SDS011;7067;51.832;8.296;2024-03-02T03:46:52;11.10;;;10.10;;
13985;SDS011;7067;51.832;8.296;2024-03-02T03:49:17;11.43;;;10.43;;
13985;SDS011;7067;51.832;8.296;2024-03-02T03:51:43;12.05;;;10.88;;
13985;SDS011;7067;51.832;8.296;2024-03-02T03:54:08;11.02;;;10.13;;
13985;SDS011;7067;51.832;8.296;2024-03-02T03:56:36;10.60;;;9.70;;
13985;SDS011;7067;51.832;8.296;2024-03-02T03:59:01;11.32;;;10.32;;
13985;SDS011;7067;51.832;8.296;2024-03-02T04:01:27;11.60;;;10.10;;
13985;SDS011;7067;51.832;8.296;2024-03-02T04:03:52;10.93;;;10.02;;
13985;SDS011;7067;51.832;8.296;2024-03-02T04:06:17;11.60;;;10.50;;
13985;SDS011;7067;51.832;8.296;2024-03-02T04:08:43;11.35;;;10.25;;
13985;SDS011;7067;51.832;8.296;2024-03-02T04:11:11;10.77;;;9.77;;
13985;SDS011;7067;51.832;8.296;2024-03-02T04:13:36;12.35;;;11.00;;
13985;SDS011;7067;51.832;8.296;2024-03-02T04:16:02;11.77;;;10.77;;
13985;SDS011;7067;51.832;8.296;2024-03-02T04:18:28;12.52;;;11.32;;
13985;SDS011;7067;51.832;8.296;2024-03-02T04:20:54;13.07;;;11.88;;
13985;SDS011;7067;51.832;8.296;2024-03-02T04:23:19;13.70;;;12.40;;
13985;SDS011;7067;51.832;8.296;2024-03-02T04:25:45;13.32;;;12.15;;
13985;SDS011;7067;51.832;8.296;2024-03-02T04:28:10;13.63;;;12.40;;
13985;SDS011;7067;51.832;8.296;2024-03-02T04:30:37;14.93;;;13.52;;
13985;SDS011;7067;51.832;8.296;2024-03-02T04:33:02;14.15;;;12.85;;
13985;SDS011;7067;51.832;8.296;2024-03-02T04:35:28;15.02;;;13.65;;
13985;SDS011;7067;51.832;8.296;2024-03-02T04:37:54;14.32;;;12.93;;
13985;SDS011;7067;51.832;8.296;2024-03-02T04:40:19;15.82;;;14.25;;
13985;SDS011;7067;51.832;8.296;2024-03-02T04:42:45;18.48;;;14.38;;
13985;SDS011;7067;51.832;8.296;2024-03-02T04:45:10;15.88;;;14.43;;
13985;SDS011;7067;51.832;8.296;2024-03-02T04:47:35;16.00;;;14.40;;
13985;SDS011;7067;51.832;8.296;2024-03-02T04:50:01;17.10;;;15.43;;
13985;SDS011;7067;51.832;8.296;2024-03-02T04:52:26;16.65;;;15.00;;
13985;SDS011;7067;51.832;8.296;2024-03-02T04:54:51;16.70;;;15.02;;
13985;SDS011;7067;51.832;8.296;2024-03-02T04:57:42;18.48;;;16.50;;
13985;SDS011;7067;51.832;8.296;2024-03-02T05:00:08;18.48;;;16.73;;
13985;SDS011;7067;51.832;8.296;2024-03-02T05:02:34;17.75;;;15.85;;
13985;SDS011;7067;51.832;8.296;2024-03-02T05:05:00;18.15;;;16.25;;
13985;SDS011;7067;51.832;8.296;2024-03-02T05:07:25;18.70;;;16.77;;
13985;SDS011;7067;51.832;8.296;2024-03-02T05:09:50;21.48;;;18.00;;
13985;SDS011;7067;51.832;8.296;2024-03-02T05:12:16;20.33;;;18.17;;
13985;SDS011;7067;51.832;8.296;2024-03-02T05:15:19;21.58;;;17.77;;
13985;SDS011;7067;51.832;8.296;2024-03-02T05:17:46;21.08;;;18.85;;
13985;SDS011;7067;51.832;8.296;2024-03-02T05:20:12;19.90;;;17.63;;
13985;SDS011;7067;51.832;8.296;2024-03-02T05:22:37;21.60;;;19.33;;
13985;SDS011;7067;51.832;8.296;2024-03-02T05:25:03;22.95;;;19.60;;
13985;SDS011;7067;51.832;8.296;2024-03-02T05:27:29;22.40;;;19.13;;
13985;SDS011;7067;51.832;8.296;2024-03-02T05:29:55;25.00;;;20.05;;
13985;SDS011;7067;51.832;8.296;2024-03-02T05:32:20;24.92;;;20.27;;
13985;SDS011;7067;51.832;8.296;2024-03-02T05:34:46;25.25;;;20.65;;
13985;SDS011;7067;51.832;8.296;2024-03-02T05:37:11;24.55;;;20.50;;
13985;SDS011;7067;51.832;8.296;2024-03-02T05:39:36;21.98;;;19.63;;
13985;SDS011;7067;51.832;8.296;2024-03-02T05:42:02;22.50;;;20.08;;
13985;SDS011;7067;51.832;8.296;2024-03-02T05:44:28;22.67;;;20.38;;
13985;SDS011;7067;51.832;8.296;2024-03-02T05:46:53;23.42;;;20.63;;
13985;SDS011;7067;51.832;8.296;2024-03-02T05:49:19;26.35;;;21.13;;
13985;SDS011;7067;51.832;8.296;2024-03-02T05:51:44;22.95;;;20.55;;
13985;SDS011;7067;51.832;8.296;2024-03-02T05:54:09;22.95;;;20.45;;
13985;SDS011;7067;51.832;8.296;2024-03-02T05:56:35;22.85;;;19.90;;
13985;SDS011;7067;51.832;8.296;2024-03-02T05:59:00;25.17;;;20.85;;
13985;SDS011;7067;51.832;8.296;2024-03-02T06:01:52;26.92;;;22.17;;
13985;SDS011;7067;51.832;8.296;2024-03-02T06:04:17;22.83;;;20.35;;
13985;SDS011;7067;51.832;8.296;2024-03-02T06:06:43;25.60;;;21.52;;
13985;SDS011;7067;51.832;8.296;2024-03-02T06:09:08;25.27;;;21.33;;
13985;SDS011;7067;51.832;8.296;2024-03-02T06:11:37;23.00;;;20.20;;
13985;SDS011;7067;51.832;8.296;2024-03-02T06:14:03;24.83;;;21.35;;
13985;SDS011;7067;51.832;8.296;2024-03-02T06:16:29;24.42;;;19.52;;
13985;SDS011;7067;51.832;8.296;2024-03-02T06:18:54;23.88;;;20.20;;
13985;SDS011;7067;51.832;8.296;2024-03-02T06:21:22;24.25;;;21.38;;
13985;SDS011;7067;51.832;8.296;2024-03-02T06:23:48;23.13;;;20.40;;
13985;SDS011;7067;51.832;8.296;2024-03-02T06:26:14;23.25;;;20.65;;
13985;SDS011;7067;51.832;8.296;2024-03-02T06:28:39;23.40;;;20.10;;
13985;SDS011;7067;51.832;8.296;2024-03-02T06:31:05;23.58;;;19.60;;
13985;SDS011;7067;51.832;8.296;2024-03-02T06:33:30;24.63;;;21.08;;
13985;SDS011;7067;51.832;8.296;2024-03-02T06:35:55;23.45;;;20.95;;
13985;SDS011;7067;51.832;8.296;2024-03-02T06:38:21;25.55;;;20.45;;
13985;SDS011;7067;51.832;8.296;2024-03-02T06:40:46;24.67;;;20.55;;
13985;SDS011;7067;51.832;8.296;2024-03-02T06:43:11;27.00;;;21.30;;
13985;SDS011;7067;51.832;8.296;2024-03-02T06:45:37;22.48;;;19.73;;
13985;SDS011;7067;51.832;8.296;2024-03-02T06:48:02;25.67;;;21.38;;
13985;SDS011;7067;51.832;8.296;2024-03-02T06:50:28;22.73;;;20.27;;
13985;SDS011;7067;51.832;8.296;2024-03-02T06:52:54;25.48;;;20.88;;
13985;SDS011;7067;51.832;8.296;2024-03-02T06:55:21;25.23;;;20.23;;
13985;SDS011;7067;51.832;8.296;2024-03-02T06:57:46;26.35;;;21.40;;
13985;SDS011;7067;51.832;8.296;2024-03-02T07:00:12;23.00;;;20.25;;
13985;SDS011;7067;51.832;8.296;2024-03-02T07:02:38;24.25;;;19.92;;
13985;SDS011;7067;51.832;8.296;2024-03-02T07:05:06;23.60;;;20.08;;
13985;SDS011;7067;51.832;8.296;2024-03-02T07:07:32;26.75;;;21.20;;
13985;SDS011;7067;51.832;8.296;2024-03-02T07:09:59;25.20;;;20.85;;
13985;SDS011;7067;51.832;8.296;2024-03-02T07:12:25;25.00;;;21.70;;
13985;SDS011;7067;51.832;8.296;2024-03-02T07:14:50;27.80;;;21.33;;
13985;SDS011;7067;51.832;8.296;2024-03-02T07:17:27;25.90;;;20.92;;
13985;SDS011;7067;51.832;8.296;2024-03-02T07:19:53;25.45;;;20.73;;
13985;SDS011;7067;51.832;8.296;2024-03-02T07:22:18;23.67;;;20.60;;
13985;SDS011;7067;51.832;8.296;2024-03-02T07:24:44;22.92;;;20.48;;
13985;SDS011;7067;51.832;8.296;2024-03-02T07:27:10;26.98;;;20.73;;
13985;SDS011;7067;51.832;8.296;2024-03-02T07:29:37;23.33;;;19.33;;
13985;SDS011;7067;51.832;8.296;2024-03-02T07:32:03;25.73;;;19.85;;
13985;SDS011;7067;51.832;8.296;2024-03-02T07:34:28;21.88;;;19.55;;
13985;SDS011;7067;51.832;8.296;2024-03-02T07:36:54;23.13;;;19.20;;
13985;SDS011;7067;51.832;8.296;2024-03-02T07:39:20;23.23;;;20.27;;
13985;SDS011;7067;51.832;8.296;2024-03-02T07:41:45;22.40;;;19.75;;
13985;SDS011;7067;51.832;8.296;2024-03-02T07:44:11;23.15;;;19.55;;
13985;SDS011;7067;51.832;8.296;2024-03-02T07:46:39;27.00;;;20.30;;
13985;SDS011;7067;51.832;8.296;2024-03-02T07:49:06;23.58;;;18.60;;
13985;SDS011;7067;51.832;8.296;2024-03-02T07:51:31;23.55;;;20.23;;
13985;SDS011;7067;51.832;8.296;2024-03-02T07:53:56;21.85;;;17.65;;
13985;SDS011;7067;51.832;8.296;2024-03-02T07:56:22;20.00;;;17.90;;
13985;SDS011;7067;51.832;8.296;2024-03-02T07:58:48;20.83;;;17.25;;
13985;SDS011;7067;51.832;8.296;2024-03-02T08:01:14;18.02;;;16.05;;
13985;SDS011;7067;51.832;8.296;2024-03-02T08:03:39;19.02;;;16.90;;
13985;SDS011;7067;51.832;8.296;2024-03-02T08:06:05;16.42;;;14.73;;
13985;SDS011;7067;51.832;8.296;2024-03-02T08:08:31;18.10;;;15.40;;
13985;SDS011;7067;51.832;8.296;2024-03-02T08:10:56;16.42;;;14.73;;
13985;SDS011;7067;51.832;8.296;2024-03-02T08:13:22;17.55;;;14.98;;
13985;SDS011;7067;51.832;8.296;2024-03-02T08:15:47;18.58;;;15.25;;
13985;SDS011;7067;51.832;8.296;2024-03-02T08:18:12;15.98;;;14.38;;
13985;SDS011;7067;51.832;8.296;2024-03-02T08:20:38;16.05;;;14.23;;
13985;SDS011;7067;51.832;8.296;2024-03-02T08:23:04;16.08;;;14.32;;
13985;SDS011;7067;51.832;8.296;2024-03-02T08:25:29;14.43;;;12.93;;
13985;SDS011;7067;51.832;8.296;2024-03-02T08:27:55;14.10;;;12.70;;
13985;SDS011;7067;51.832;8.296;2024-03-02T08:30:20;14.48;;;12.32;;
13985;SDS011;7067;51.832;8.296;2024-03-02T08:32:46;12.68;;;10.95;;
13985;SDS011;7067;51.832;8.296;2024-03-02T08:35:12;12.60;;;11.13;;
13985;SDS011;7067;51.832;8.296;2024-03-02T08:37:39;13.55;;;10.73;;
13985;SDS011;7067;51.832;8.296;2024-03-02T08:40:06;12.48;;;11.02;;
13985;SDS011;7067;51.832;8.296;2024-03-02T08:42:32;11.60;;;10.38;;
13985;SDS011;7067;51.832;8.296;2024-03-02T08:44:58;12.63;;;11.02;;
13985;SDS011;7067;51.832;8.296;2024-03-02T08:47:25;10.90;;;9.90;;
13985;SDS011;7067;51.832;8.296;2024-03-02T08:49:51;10.73;;;9.52;;
13985;SDS011;7067;51.832;8.296;2024-03-02T08:52:17;10.68;;;9.68;;
13985;SDS011;7067;51.832;8.296;2024-03-02T08:54:42;10.57;;;9.50;;
13985;SDS011;7067;51.832;8.296;2024-03-02T08:57:07;11.15;;;10.05;;
13985;SDS011;7067;51.832;8.296;2024-03-02T08:59:33;10.30;;;9.25;;
13985;SDS011;7067;51.832;8.296;2024-03-02T09:01:58;10.80;;;8.98;;
13985;SDS011;7067;51.832;8.296;2024-03-02T09:04:24;10.15;;;9.23;;
13985;SDS011;7067;51.832;8.296;2024-03-02T09:06:49;9.98;;;8.98;;
13985;SDS011;7067;51.832;8.296;2024-03-02T09:09:15;8.13;;;7.32;;
13985;SDS011;7067;51.832;8.296;2024-03-02T09:11:41;9.93;;;8.57;;
13985;SDS011;7067;51.832;8.296;2024-03-02T09:14:07;9.65;;;8.65;;
13985;SDS011;7067;51.832;8.296;2024-03-02T09:16:32;8.90;;;8.00;;
13985;SDS011;7067;51.832;8.296;2024-03-02T09:18:57;9.15;;;8.35;;
13985;SDS011;7067;51.832;8.296;2024-03-02T09:21:23;8.20;;;7.57;;
13985;SDS011;7067;51.832;8.296;2024-03-02T09:23:48;8.63;;;7.72;;
13985;SDS011;7067;51.832;8.296;2024-03-02T09:26:14;8.57;;;7.78;;
13985;SDS011;7067;51.832;8.296;2024-03-02T09:28:42;7.93;;;7.22;;
13985;SDS011;7067;51.832;8.296;2024-03-02T09:31:08;7.83;;;7.03;;
13985;SDS011;7067;51.832;8.296;2024-03-02T09:33:34;7.78;;;7.07;;
13985;SDS011;7067;51.832;8.296;2024-03-02T09:35:59;7.43;;;6.72;;
13985;SDS011;7067;51.832;8.296;2024-03-02T09:38:24;7.63;;;6.82;;
13985;SDS011;7067;51.832;8.296;2024-03-02T09:40:50;8.35;;;7.53;;
13985;SDS011;7067;51.832;8.296;2024-03-02T09:43:15;8.20;;;7.43;;
13985;SDS011;7067;51.832;8.296;2024-03-02T09:45:40;7.80;;;7.10;;
13985;SDS011;7067;51.832;8.296;2024-03-02T09:48:06;7.32;;;6.53;;
13985;SDS011;7067;51.832;8.296;2024-03-02T09:50:32;7.95;;;6.70;;
13985;SDS011;7067;51.832;8.296;2024-03-02T09:52:57;8.48;;;7.50;;
13985;SDS011;7067;51.832;8.296;2024-03-02T09:55:24;7.60;;;6.78;;
13985;SDS011;7067;51.832;8.296;2024-03-02T09:57:50;7.38;;;6.65;;
13985;SDS011;7067;51.832;8.296;2024-03-02T10:00:16;6.90;;;6.40;;
13985;SDS011;7067;51.832;8.296;2024-03-02T10:02:42;7.60;;;6.85;;
13985;SDS011;7067;51.832;8.296;2024-03-02T10:05:10;6.88;;;6.28;;
13985;SDS011;7067;51.832;8.296;2024-03-02T10:07:37;6.18;;;5.57;;
13985;SDS011;7067;51.832;8.296;2024-03-02T10:10:14;5.43;;;4.93;;
13985;SDS011;7067;51.832;8.296;2024-03-02T10:12:40;5.43;;;5.03;;
13985;SDS011;7067;51.832;8.296;2024-03-02T10:15:06;10.07;;;5.32;;
13985;SDS011;7067;51.832;8.296;2024-03-02T10:17:32;5.28;;;4.85;;
13985;SDS011;7067;51.832;8.296;2024-03-02T10:19:58;6.03;;;5.53;;
13985;SDS011;7067;51.832;8.296;2024-03-02T10:22:23;4.75;;;4.35;;
13985;SDS011;7067;51.832;8.296;2024-03-02T10:24:48;4.57;;;4.18;;
13985;SDS011;7067;51.832;8.296;2024-03-02T10:27:17;4.22;;;3.90;;
13985;SDS011;7067;51.832;8.296;2024-03-02T10:29:50;4.72;;;4.32;;
13985;SDS011;7067;51.832;8.296;2024-03-02T10:32:16;4.60;;;4.20;;
13985;SDS011;7067;51.832;8.296;2024-03-02T10:34:42;4.60;;;3.80;;
13985;SDS011;7067;51.832;8.296;2024-03-02T10:37:10;3.65;;;3.35;;
13985;SDS011;7067;51.832;8.296;2024-03-02T10:39:36;3.72;;;3.42;;
13985;SDS011;7067;51.832;8.296;2024-03-02T10:42:05;3.30;;;3.00;;
13985;SDS011;7067;51.832;8.296;2024-03-02T10:44:31;2.88;;;2.58;;
13985;SDS011;7067;51.832;8.296;2024-03-02T10:46:57;2.40;;;2.20;;
13985;SDS011;7067;51.832;8.296;2024-03-02T10:49:29;2.63;;;2.03;;
13985;SDS011;7067;51.832;8.296;2024-03-02T10:51:55;2.60;;;2.40;;
13985;SDS011;7067;51.832;8.296;2024-03-02T10:54:20;2.50;;;2.30;;
13985;SDS011;7067;51.832;8.296;2024-03-02T10:56:51;2.58;;;2.38;;
13985;SDS011;7067;51.832;8.296;2024-03-02T10:59:27;2.55;;;2.35;;
13985;SDS011;7067;51.832;8.296;2024-03-02T11:02:01;2.70;;;2.50;;
13985;SDS011;7067;51.832;8.296;2024-03-02T11:04:34;2.60;;;2.35;;
13985;SDS011;7067;51.832;8.296;2024-03-02T11:07:02;2.05;;;1.73;;
13985;SDS011;7067;51.832;8.296;2024-03-02T11:09:33;1.50;;;1.40;;
13985;SDS011;7067;51.832;8.296;2024-03-02T11:14:43;1.35;;;1.23;;
13985;SDS011;7067;51.832;8.296;2024-03-02T11:17:09;2.63;;;1.60;;
13985;SDS011;7067;51.832;8.296;2024-03-02T11:19:35;1.92;;;1.70;;
13985;SDS011;7067;51.832;8.296;2024-03-02T11:22:03;2.15;;;1.20;;
13985;SDS011;7067;51.832;8.296;2024-03-02T11:24:29;1.45;;;1.25;;
13985;SDS011;7067;51.832;8.296;2024-03-02T11:27:02;4.90;;;1.70;;
13985;SDS011;7067;51.832;8.296;2024-03-02T11:34:30;1.20;;;1.10;;
13985;SDS011;7067;51.832;8.296;2024-03-02T11:36:56;1.70;;;1.40;;
13985;SDS011;7067;51.832;8.296;2024-03-02T11:39:22;1.35;;;1.25;;
13985;SDS011;7067;51.832;8.296;2024-03-02T11:41:47;1.17;;;0.98;;
13985;SDS011;7067;51.832;8.296;2024-03-02T11:44:13;2.40;;;1.38;;
13985;SDS011;7067;51.832;8.296;2024-03-02T11:46:40;1.80;;;1.70;;
13985;SDS011;7067;51.832;8.296;2024-03-02T11:49:05;3.15;;;1.38;;
13985;SDS011;7067;51.832;8.296;2024-03-02T11:51:32;2.38;;;1.30;;
13985;SDS011;7067;51.832;8.296;2024-03-02T11:53:58;1.48;;;1.38;;
13985;SDS011;7067;51.832;8.296;2024-03-02T11:56:25;1.52;;;1.30;;
13985;SDS011;7067;51.832;8.296;2024-03-02T11:58:52;1.17;;;1.08;;
13985;SDS011;7067;51.832;8.296;2024-03-02T12:01:18;0.85;;;0.85;;
13985;SDS011;7067;51.832;8.296;2024-03-02T12:03:44;0.70;;;0.70;;
13985;SDS011;7067;51.832;8.296;2024-03-02T12:06:11;1.95;;;0.80;;
13985;SDS011;7067;51.832;8.296;2024-03-02T12:08:38;2.92;;;1.00;;
13985;SDS011;7067;51.832;8.296;2024-03-02T12:11:03;0.70;;;0.70;;
13985;SDS011;7067;51.832;8.296;2024-03-02T12:13:31;0.63;;;0.60;;
13985;SDS011;7067;51.832;8.296;2024-03-02T12:15:58;0.93;;;0.70;;
13985;SDS011;7067;51.832;8.296;2024-03-02T12:18:23;1.98;;;0.70;;
13985;SDS011;7067;51.832;8.296;2024-03-02T12:20:49;0.80;;;0.65;;
13985;SDS011;7067;51.832;8.296;2024-03-02T12:23:21;2.67;;;0.80;;
13985;SDS011;7067;51.832;8.296;2024-03-02T12:25:47;1.02;;;0.60;;
13985;SDS011;7067;51.832;8.296;2024-03-02T12:28:12;0.85;;;0.60;;
13985;SDS011;7067;51.832;8.296;2024-03-02T12:30:38;0.75;;;0.60;;
13985;SDS011;7067;51.832;8.296;2024-03-02T12:33:04;4.68;;;0.88;;
13985;SDS011;7067;51.832;8.296;2024-03-02T12:35:32;1.42;;;1.02;;
13985;SDS011;7067;51.832;8.296;2024-03-02T12:37:58;1.73;;;1.50;;
13985;SDS011;7067;51.832;8.296;2024-03-02T12:40:23;0.85;;;0.85;;
13985;SDS011;7067;51.832;8.296;2024-03-02T12:42:49;2.10;;;1.75;;
13985;SDS011;7067;51.832;8.296;2024-03-02T12:45:15;3.75;;;1.02;;
13985;SDS011;7067;51.832;8.296;2024-03-02T12:47:41;1.83;;;0.75;;
13985;SDS011;7067;51.832;8.296;2024-03-02T12:50:07;1.20;;;0.98;;
13985;SDS011;7067;51.832;8.296;2024-03-02T12:52:34;1.02;;;0.68;;
13985;SDS011;7067;51.832;8.296;2024-03-02T12:55:00;0.90;;;0.70;;
13985;SDS011;7067;51.832;8.296;2024-03-02T12:57:44;1.30;;;0.90;;
13985;SDS011;7067;51.832;8.296;2024-03-02T13:00:10;1.02;;;0.80;;
13985;SDS011;7067;51.832;8.296;2024-03-02T13:02:39;0.90;;;0.50;;
13985;SDS011;7067;51.832;8.296;2024-03-02T13:05:05;1.02;;;1.00;;
13985;SDS011;7067;51.832;8.296;2024-03-02T13:07:36;0.65;;;0.65;;
13985;SDS011;7067;51.832;8.296;2024-03-02T13:10:01;0.82;;;0.80;;
13985;SDS011;7067;51.832;8.296;2024-03-02T13:12:27;1.42;;;0.90;;
13985;SDS011;7067;51.832;8.296;2024-03-02T13:14:53;2.45;;;1.05;;
13985;SDS011;7067;51.832;8.296;2024-03-02T13:17:19;0.80;;;0.73;;
13985;SDS011;7067;51.832;8.296;2024-03-02T13:19:51;1.33;;;1.23;;
13985;SDS011;7067;51.832;8.296;2024-03-02T13:22:17;3.20;;;2.90;;
13985;SDS011;7067;51.832;8.296;2024-03-02T13:24:43;4.72;;;4.32;;
13985;SDS011;7067;51.832;8.296;2024-03-02T13:27:08;5.00;;;4.60;;
13985;SDS011;7067;51.832;8.296;2024-03-02T13:29:33;14.02;;;5.15;;
13985;SDS011;7067;51.832;8.296;2024-03-02T13:31:59;4.53;;;4.07;;
13985;SDS011;7067;51.832;8.296;2024-03-02T13:34:24;4.07;;;3.78;;
13985;SDS011;7067;51.832;8.296;2024-03-02T13:36:50;4.43;;;3.78;;
13985;SDS011;7067;51.832;8.296;2024-03-02T13:39:15;3.20;;;2.90;;
13985;SDS011;7067;51.832;8.296;2024-03-02T13:41:41;1.23;;;1.10;;
13985;SDS011;7067;51.832;8.296;2024-03-02T13:44:06;1.17;;;1.05;;
13985;SDS011;7067;51.832;8.296;2024-03-02T13:46:32;3.33;;;2.03;;
13985;SDS011;7067;51.832;8.296;2024-03-02T13:48:57;4.30;;;1.50;;
13985;SDS011;7067;51.832;8.296;2024-03-02T13:51:24;1.25;;;0.90;;
13985;SDS011;7067;51.832;8.296;2024-03-02T13:53:50;1.50;;;1.40;;
13985;SDS011;7067;51.832;8.296;2024-03-02T13:56:16;0.88;;;0.73;;
13985;SDS011;7067;51.832;8.296;2024-03-02T13:58:42;0.85;;;0.30;;
13985;SDS011;7067;51.832;8.296;2024-03-02T14:01:08;3.63;;;0.82;;
13985;SDS011;7067;51.832;8.296;2024-03-02T14:03:34;1.52;;;0.55;;
13985;SDS011;7067;51.832;8.296;2024-03-02T14:05:59;1.13;;;0.60;;
13985;SDS011;7067;51.832;8.296;2024-03-02T14:08:25;1.77;;;0.90;;
13985;SDS011;7067;51.832;8.296;2024-03-02T14:10:50;0.80;;;0.50;;
13985;SDS011;7067;51.832;8.296;2024-03-02T14:13:15;5.05;;;1.63;;
13985;SDS011;7067;51.832;8.296;2024-03-02T14:15:41;3.03;;;2.45;;
13985;SDS011;7067;51.832;8.296;2024-03-02T14:18:06;5.97;;;3.17;;
13985;SDS011;7067;51.832;8.296;2024-03-02T14:20:32;4.53;;;3.75;;
13985;SDS011;7067;51.832;8.296;2024-03-02T14:22:58;7.80;;;4.50;;
13985;SDS011;7067;51.832;8.296;2024-03-02T14:25:24;4.50;;;3.13;;
13985;SDS011;7067;51.832;8.296;2024-03-02T14:27:50;3.30;;;3.00;;
13985;SDS011;7067;51.832;8.296;2024-03-02T14:30:15;5.95;;;2.92;;
13985;SDS011;7067;51.832;8.296;2024-03-02T14:32:41;4.50;;;3.55;;
13985;SDS011;7067;51.832;8.296;2024-03-02T14:35:06;7.43;;;3.47;;
13985;SDS011;7067;51.832;8.296;2024-03-02T14:37:35;3.95;;;3.38;;
13985;SDS011;7067;51.832;8.296;2024-03-02T14:40:01;3.47;;;2.78;;
13985;SDS011;7067;51.832;8.296;2024-03-02T14:42:26;3.33;;;3.03;;
13985;SDS011;7067;51.832;8.296;2024-03-02T14:44:56;2.63;;;2.42;;
13985;SDS011;7067;51.832;8.296;2024-03-02T14:47:22;2.75;;;2.55;;
13985;SDS011;7067;51.832;8.296;2024-03-02T14:49:47;3.42;;;2.60;;